ADDS METAR Data INFO
IDs: Format: Raw Decoded Include TAF

Data at: 1149 UTC 25 Jun 2018

K6R3 251135Z AUTO 00000KT 7SM CLR 25/23 A2998 RMK AO2 T02480232
K6R3 251115Z AUTO 16003KT 7SM CLR 25/23 A2997 RMK AO2 T02480233
K6R3 251055Z AUTO 17004KT 7SM CLR 25/23 A2997 RMK AO2 T02480233
K6R3 251035Z AUTO 16004KT 5SM BR SCT019 25/23 A2996 RMK AO2 T02480233
K6R3 251015Z AUTO 17005KT 7SM CLR 25/23 A2996 RMK AO2 T02480233
K6R3 250955Z AUTO 17004KT 7SM CLR 25/23 A2995 RMK AO2 T02480233
K6R3 250935Z AUTO 17005KT 7SM CLR 25/23 A2995 RMK AO2 T02470232
K6R3 250915Z AUTO 16005KT 7SM CLR 25/23 A2995 RMK AO2 T02460232
K6R3 250855Z AUTO 16004KT 7SM CLR 25/23 A2995 RMK AO2 T02450230
K6R3 250835Z AUTO 16003KT 7SM CLR 25/23 A2995 RMK AO2 T02450230
K6R3 250815Z AUTO 16003KT 7SM CLR 25/23 A2995 RMK AO2 T02460230
K6R3 250755Z AUTO 16003KT 7SM CLR 25/23 A2996 RMK AO2 T02460230
K6R3 250735Z AUTO 16003KT 7SM CLR 25/23 A2996 RMK AO2 T02480230
K6R3 250715Z AUTO 00000KT 7SM SCT021 25/23 A2997 RMK AO2 T02490229
K6R3 250655Z AUTO 00000KT 7SM CLR 25/23 A2998 RMK AO2 T02500230
K6R3 250635Z AUTO 17004KT 7SM CLR 25/23 A2997 RMK AO2 T02510231
K6R3 250615Z AUTO 17006KT 7SM CLR 25/23 A2996 RMK AO2 T02510231
K6R3 250555Z AUTO 16004KT 7SM CLR 25/23 A2997 RMK AO2 T02510231 10309 20251 403420230
K6R3 250535Z AUTO 16003KT 7SM CLR 25/23 A2998 RMK AO2 T02520230
K6R3 250515Z AUTO 00000KT 7SM CLR 26/23 A2997 RMK AO2 T02550230
K6R3 250455Z AUTO 16004KT 10SM CLR 26/23 A2996 RMK AO2 T02550230
K6R3 250435Z AUTO 00000KT 7SM CLR 26/23 A2997 RMK AO2 T02590230
K6R3 250415Z AUTO 16005KT 7SM CLR 26/23 A2995 RMK AO2 T02570228
K6R3 250355Z AUTO 00000KT 7SM CLR 26/23 A2996 RMK AO2 T02610226
K6R3 250335Z AUTO 16004KT 10SM CLR 26/23 A2995 RMK AO2 T02610225
K6R3 250315Z AUTO 16004KT 7SM CLR 26/23 A2994 RMK AO2 T02620225
K6R3 250255Z AUTO 16004KT 7SM CLR 26/22 A2995 RMK AO2 T02630223
K6R3 250235Z AUTO 16004KT 7SM CLR 27/22 A2994 RMK AO2 T02670222
K6R3 250215Z AUTO 15004KT 10SM CLR 27/22 A2994 RMK AO2 T02690223
K6R3 250155Z AUTO 16005KT 10SM CLR 27/23 A2994 RMK AO2 T02700225
K6R3 250135Z AUTO 16004KT 10SM CLR 28/22 A2993 RMK AO2 T02750221
K6R3 250115Z AUTO 17006KT 7SM SCT047 28/22 A2993 RMK AO2 T02810221
K6R3 250055Z AUTO 17007KT 10SM SCT047 29/22 A2993 RMK AO2 T02870221
K6R3 250035Z AUTO 17009KT 7SM CLR 30/22 A2992 RMK AO2 T02970218
K6R3 250015Z AUTO 17007KT 7SM SCT032 30/22 A2992 RMK AO2 T03030216
K6R3 242355Z AUTO 16009KT 7SM SCT030 SCT035 31/22 A2992 RMK AO2 T03100219 10342 20310
K6R3 242335Z AUTO 17010G18KT 7SM SCT030 SCT035 31/22 A2991 RMK AO2 T03120219
K6R3 242315Z AUTO 18010G17KT 7SM CLR 31/22 A2992 RMK AO2 T03120216
K6R3 242255Z AUTO 18012G17KT 7SM CLR 32/21 A2991 RMK AO2 T03220213
K6R3 242235Z AUTO 18013G22KT 10SM SCT030 SCT036 32/21 A2991 RMK AO2 T03200209
K6R3 242215Z AUTO 17016G23KT 10SM SCT030 SCT034 SCT046 33/22 A2991 RMK AO2 T03250222
K6R3 242155Z AUTO 19012G22KT 7SM SCT032 SCT044 SCT060 32/22 A2992 RMK AO2 T03220218
K6R3 242135Z AUTO 17012G21KT 10SM SCT034 SCT044 SCT060 33/21 A2991 RMK AO2 T03280208
K6R3 242115Z AUTO 18015G23KT 7SM CLR 34/21 A2992 RMK AO2 T03350209
K6R3 242055Z AUTO 18013G21KT 10SM SCT035 SCT041 34/21 A2992 RMK AO2 T03380210
K6R3 242035Z AUTO 19013G22KT 7SM CLR 34/21 A2992 RMK AO2 T03380211
K6R3 242015Z AUTO 19014G20KT 7SM SCT039 SCT047 34/20 A2993 RMK AO2 T03410204
K6R3 241955Z AUTO 18014G20KT 10SM SCT037 34/21 A2993 RMK AO2 T03400212
K6R3 241935Z AUTO 18015G19KT 7SM SCT034 SCT048 SCT055 34/22 A2994 RMK AO2 T03400217
K6R3 241915Z AUTO 18016G19KT 7SM SCT035 SCT044 SCT050 34/22 A2993 RMK AO2 T03400221
K6R3 241855Z AUTO 19016G21KT 10SM BKN034 BKN041 BKN047 33/22 A2994 RMK AO2 T03280219
K6R3 241835Z AUTO 18011G17KT 7SM SCT032 SCT039 SCT045 34/22 A2994 RMK AO2 T03380221
K6R3 241815Z AUTO 16012G18KT 10SM SCT035 BKN048 BKN050 33/22 A2994 RMK AO2 T03340222
K6R3 241755Z AUTO 18013G18KT 10SM SCT037 BKN048 33/22 A2995 RMK AO2 T03270217 10335 20242
K6R3 241735Z AUTO 18011G19KT 7SM SCT035 BKN045 33/21 A2995 RMK AO2 T03330214
K6R3 241715Z AUTO 17010G14KT 10SM BKN033 BKN041 32/22 A2994 RMK AO2 T03230223
K6R3 241655Z AUTO 20010G14KT 10SM SCT034 BKN042 BKN049 31/22 A2995 RMK AO2 T03130224
K6R3 241635Z AUTO 20008KT 7SM BKN030 BKN041 BKN049 31/22 A2994 RMK AO2 T03130221
K6R3 241615Z AUTO 22007KT 7SM BKN028 BKN034 BKN042 31/22 A2994 RMK AO2 T03100221
K6R3 241555Z AUTO 19007KT 7SM SCT030 SCT042 32/22 A2993 RMK AO2 T03210224
K6R3 241535Z AUTO 20011G18KT 7SM SCT027 31/22 A2993 RMK AO2 T03140223
K6R3 241515Z AUTO 19012KT 7SM CLR 31/23 A2993 RMK AO2 T03080229
K6R3 241455Z AUTO 19009KT 7SM CLR 30/24 A2993 RMK AO2 T02970235
K6R3 241435Z AUTO 20005KT 7SM SCT019 SCT025 SCT042 28/24 A2994 RMK AO2 T02770237
K6R3 241415Z AUTO 21004KT 7SM SCT015 BKN019 BKN025 28/24 A2994 RMK AO2 LTG DSNT S T02780239
K6R3 241355Z AUTO 20004KT 7SM OVC015 28/24 A2994 RMK AO2 T02830241
K6R3 241335Z AUTO 20007KT 7SM OVC015 28/24 A2992 RMK AO2 T02800243
K6R3 241315Z AUTO 21005KT 7SM SCT018 28/25 A2990 RMK AO2 T02750245
K6R3 241255Z AUTO 19007KT 7SM CLR 26/25 A2990 RMK AO2 T02630245
K6R3 241235Z AUTO 18006KT 5SM BR CLR 25/24 A2988 RMK AO2 T02540243
K6R3 241215Z AUTO 19006KT 5SM BR CLR 25/24 A2989 RMK AO2 T02490240
K6R3 241155Z AUTO 19004KT 5SM BR CLR 24/24 A2989 RMK AO2 T02420235 10250 20230
K6R3 241135Z AUTO 16004KT 5SM BR CLR 24/23 A2989 RMK AO2 T02380231
K6R3 241115Z AUTO 00000KT 5SM BR SCT020 23/22 A2990 RMK AO2 T02300220
K6R3 241055Z AUTO 00000KT 5SM BR SCT018 SCT024 23/22 A2991 RMK AO2 T02320222
K6R3 241035Z AUTO 00000KT 5SM BR BKN019 BKN026 23/22 A2991 RMK AO2 T02330223
K6R3 241015Z AUTO 00000KT 7SM BKN019 24/23 A2990 RMK AO2 T02350225
K6R3 240955Z AUTO 00000KT 4SM BR BKN022 24/22 A2990 RMK AO2 T02350224
K6R3 240935Z AUTO 00000KT 4SM BR SCT024 23/22 A2990 RMK AO2 T02330222
K6R3 240915Z AUTO 00000KT 5SM BR CLR 24/23 A2991 RMK AO2 T02360225
K6R3 240855Z AUTO 00000KT 5SM BR CLR 24/23 A2991 RMK AO2 T02380227
K6R3 240835Z AUTO 00000KT 5SM BR CLR 24/23 A2991 RMK AO2 T02380226
K6R3 240815Z AUTO 00000KT 7SM CLR 24/23 A2992 RMK AO2 T02410230
K6R3 240755Z AUTO 00000KT 5SM BR CLR 25/23 A2991 RMK AO2 T02450232
K6R3 240735Z AUTO 00000KT 5SM BR SCT021 SCT026 25/24 A2992 RMK AO2 T02470235
K6R3 240715Z AUTO 17003KT 5SM BR SCT019 SCT026 SCT040 25/23 A2991 RMK AO2 T02470234
K6R3 240655Z AUTO 16003KT 5SM BR SCT019 BKN024 BKN036 25/23 A2992 RMK AO2 T02460233
K6R3 240635Z AUTO 00000KT 7SM SCT019 SCT024 BKN029 25/23 A2992 RMK AO2 T02460231
K6R3 240615Z AUTO 00000KT 7SM SCT018 SCT022 25/23 A2991 RMK AO2 T02470232
K6R3 240555Z AUTO 00000KT 5SM BR BKN018 BKN025 BKN032 25/24 A2991 RMK AO2 T02500235 10310 20250 403490226
K6R3 240535Z AUTO 00000KT 7SM CLR 25/24 A2990 RMK AO2 T02510235
K6R3 240515Z AUTO 00000KT 7SM CLR 25/23 A2989 RMK AO2 T02530234
K6R3 240455Z AUTO 16004KT 7SM CLR 25/23 A2988 RMK AO2 T02540234
K6R3 240435Z AUTO 17004KT 7SM CLR 26/23 A2988 RMK AO2 T02550232
K6R3 240415Z AUTO 17003KT 7SM CLR 26/23 A2987 RMK AO2 T02560231
K6R3 240355Z AUTO 17005KT 7SM CLR 26/23 A2987 RMK AO2 T02580232
K6R3 240335Z AUTO 16004KT 10SM CLR 26/23 A2987 RMK AO2 T02600231
K6R3 240315Z AUTO 16005KT 7SM CLR 26/23 A2986 RMK AO2 T02620231
K6R3 240255Z AUTO 17005KT 7SM CLR 26/23 A2985 RMK AO2 T02640231
K6R3 240235Z AUTO 17006KT 7SM CLR 27/23 A2985 RMK AO2 T02650232
K6R3 240215Z AUTO 16004KT 7SM CLR 27/23 A2985 RMK AO2 T02680231
K6R3 240155Z AUTO 16006KT 10SM CLR 27/23 A2984 RMK AO2 T02710230
K6R3 240135Z AUTO 17006KT 10SM CLR 28/23 A2984 RMK AO2 T02750230
K6R3 240115Z AUTO 17009KT 7SM SCT022 28/23 A2983 RMK AO2 T02800230
K6R3 240055Z AUTO 17009G14KT 7SM SCT022 29/23 A2984 RMK AO2 T02880230
K6R3 240035Z AUTO 18009KT 7SM CLR 30/23 A2983 RMK AO2 T02980228
K6R3 240015Z AUTO 17010KT 5SM HZ SCT026 30/23 A2983 RMK AO2 T03020226
K6R3 232355Z AUTO 16007KT 7SM SCT026 31/23 A2983 RMK AO2 T03110229 10349 20307